sensor_id;sensor_type;location;lat;lon;timestamp;P1;durP1;ratioP1;P2;durP2;ratioP2
9948;SDS011;5013;51.840;8.276;2022-10-17T00:01:20;3.87;;;3.57;;
9948;SDS011;5013;51.840;8.276;2022-10-17T00:03:46;4.50;;;4.10;;
9948;SDS011;5013;51.840;8.276;2022-10-17T00:06:13;4.37;;;3.97;;
9948;SDS011;5013;51.840;8.276;2022-10-17T00:08:39;3.80;;;3.50;;
9948;SDS011;5013;51.840;8.276;2022-10-17T00:11:07;3.87;;;3.57;;
9948;SDS011;5013;51.840;8.276;2022-10-17T00:13:37;5.53;;;3.43;;
9948;SDS011;5013;51.840;8.276;2022-10-17T00:19:24;4.03;;;3.10;;
9948;SDS011;5013;51.840;8.276;2022-10-17T00:21:50;6.00;;;3.40;;
9948;SDS011;5013;51.840;8.276;2022-10-17T00:24:15;3.10;;;3.00;;
9948;SDS011;5013;51.840;8.276;2022-10-17T00:26:41;3.20;;;3.07;;
9948;SDS011;5013;51.840;8.276;2022-10-17T00:29:07;2.87;;;2.77;;
9948;SDS011;5013;51.840;8.276;2022-10-17T00:31:32;3.77;;;3.57;;
9948;SDS011;5013;51.840;8.276;2022-10-17T00:33:59;3.90;;;3.03;;
9948;SDS011;5013;51.840;8.276;2022-10-17T00:36:25;3.23;;;3.13;;
9948;SDS011;5013;51.840;8.276;2022-10-17T00:38:55;2.77;;;2.67;;
9948;SDS011;5013;51.840;8.276;2022-10-17T00:41:23;3.67;;;3.30;;
9948;SDS011;5013;51.840;8.276;2022-10-17T00:43:52;3.20;;;3.00;;
9948;SDS011;5013;51.840;8.276;2022-10-17T00:46:19;3.60;;;3.20;;
9948;SDS011;5013;51.840;8.276;2022-10-17T00:48:46;4.80;;;3.10;;
9948;SDS011;5013;51.840;8.276;2022-10-17T00:51:15;3.23;;;3.13;;
9948;SDS011;5013;51.840;8.276;2022-10-17T00:53:43;3.00;;;2.90;;
9948;SDS011;5013;51.840;8.276;2022-10-17T00:56:09;3.33;;;3.13;;
9948;SDS011;5013;51.840;8.276;2022-10-17T00:58:35;4.03;;;3.50;;
9948;SDS011;5013;51.840;8.276;2022-10-17T01:01:01;3.90;;;3.50;;
9948;SDS011;5013;51.840;8.276;2022-10-17T01:03:27;3.50;;;3.30;;
9948;SDS011;5013;51.840;8.276;2022-10-17T01:05:53;3.73;;;3.50;;
9948;SDS011;5013;51.840;8.276;2022-10-17T01:08:19;3.70;;;3.23;;
9948;SDS011;5013;51.840;8.276;2022-10-17T01:10:50;3.57;;;3.37;;
9948;SDS011;5013;51.840;8.276;2022-10-17T01:13:51;6.67;;;3.50;;
9948;SDS011;5013;51.840;8.276;2022-10-17T01:21:54;3.23;;;3.00;;
9948;SDS011;5013;51.840;8.276;2022-10-17T01:32:44;3.60;;;3.40;;
9948;SDS011;5013;51.840;8.276;2022-10-17T01:38:21;4.00;;;2.83;;
9948;SDS011;5013;51.840;8.276;2022-10-17T01:40:55;2.90;;;2.80;;
9948;SDS011;5013;51.840;8.276;2022-10-17T01:43:36;2.90;;;2.80;;
9948;SDS011;5013;51.840;8.276;2022-10-17T01:46:19;2.77;;;2.63;;
9948;SDS011;5013;51.840;8.276;2022-10-17T01:48:50;4.07;;;3.80;;
9948;SDS011;5013;51.840;8.276;2022-10-17T01:51:19;3.57;;;3.37;;
9948;SDS011;5013;51.840;8.276;2022-10-17T01:53:53;3.27;;;3.17;;
9948;SDS011;5013;51.840;8.276;2022-10-17T01:56:24;3.20;;;3.10;;
9948;SDS011;5013;51.840;8.276;2022-10-17T01:58:54;3.10;;;2.90;;
9948;SDS011;5013;51.840;8.276;2022-10-17T02:01:25;3.40;;;3.23;;
9948;SDS011;5013;51.840;8.276;2022-10-17T02:03:54;3.83;;;3.30;;
9948;SDS011;5013;51.840;8.276;2022-10-17T02:06:22;3.30;;;3.20;;
9948;SDS011;5013;51.840;8.276;2022-10-17T02:08:48;3.57;;;3.27;;
9948;SDS011;5013;51.840;8.276;2022-10-17T02:16:45;4.47;;;4.10;;
9948;SDS011;5013;51.840;8.276;2022-10-17T02:22:14;5.07;;;4.67;;
9948;SDS011;5013;51.840;8.276;2022-10-17T02:27:32;3.73;;;3.53;;
9948;SDS011;5013;51.840;8.276;2022-10-17T02:32:43;4.37;;;3.97;;
9948;SDS011;5013;51.840;8.276;2022-10-17T02:35:16;4.67;;;3.93;;
9948;SDS011;5013;51.840;8.276;2022-10-17T02:37:44;3.97;;;3.77;;
9948;SDS011;5013;51.840;8.276;2022-10-17T02:40:12;4.97;;;4.70;;
9948;SDS011;5013;51.840;8.276;2022-10-17T02:42:40;4.57;;;4.33;;
9948;SDS011;5013;51.840;8.276;2022-10-17T02:45:09;4.63;;;4.23;;
9948;SDS011;5013;51.840;8.276;2022-10-17T02:47:45;4.27;;;4.07;;
9948;SDS011;5013;51.840;8.276;2022-10-17T02:50:26;5.00;;;4.60;;
9948;SDS011;5013;51.840;8.276;2022-10-17T02:53:17;4.60;;;4.40;;
9948;SDS011;5013;51.840;8.276;2022-10-17T02:55:52;4.70;;;4.30;;
9948;SDS011;5013;51.840;8.276;2022-10-17T02:58:22;5.47;;;4.73;;
9948;SDS011;5013;51.840;8.276;2022-10-17T03:00:52;4.93;;;4.60;;
9948;SDS011;5013;51.840;8.276;2022-10-17T03:03:19;5.50;;;4.97;;
9948;SDS011;5013;51.840;8.276;2022-10-17T03:05:44;6.17;;;5.70;;
9948;SDS011;5013;51.840;8.276;2022-10-17T03:08:10;5.27;;;5.07;;
9948;SDS011;5013;51.840;8.276;2022-10-17T03:10:35;5.30;;;4.90;;
9948;SDS011;5013;51.840;8.276;2022-10-17T03:13:01;5.50;;;5.10;;
9948;SDS011;5013;51.840;8.276;2022-10-17T03:15:27;5.50;;;5.10;;
9948;SDS011;5013;51.840;8.276;2022-10-17T03:17:52;5.87;;;5.30;;
9948;SDS011;5013;51.840;8.276;2022-10-17T03:20:19;5.23;;;4.80;;
9948;SDS011;5013;51.840;8.276;2022-10-17T03:22:45;5.63;;;5.33;;
9948;SDS011;5013;51.840;8.276;2022-10-17T03:25:10;5.80;;;5.20;;
9948;SDS011;5013;51.840;8.276;2022-10-17T03:27:36;5.90;;;5.23;;
9948;SDS011;5013;51.840;8.276;2022-10-17T03:30:02;6.40;;;5.90;;
9948;SDS011;5013;51.840;8.276;2022-10-17T03:32:27;5.70;;;5.33;;
9948;SDS011;5013;51.840;8.276;2022-10-17T03:34:53;5.33;;;5.03;;
9948;SDS011;5013;51.840;8.276;2022-10-17T03:37:18;5.87;;;5.40;;
9948;SDS011;5013;51.840;8.276;2022-10-17T03:39:44;6.67;;;6.07;;
9948;SDS011;5013;51.840;8.276;2022-10-17T03:42:10;6.27;;;5.83;;
9948;SDS011;5013;51.840;8.276;2022-10-17T03:44:35;6.47;;;5.70;;
9948;SDS011;5013;51.840;8.276;2022-10-17T03:47:01;6.20;;;5.80;;
9948;SDS011;5013;51.840;8.276;2022-10-17T03:49:26;6.73;;;6.07;;
9948;SDS011;5013;51.840;8.276;2022-10-17T03:51:52;5.90;;;5.33;;
9948;SDS011;5013;51.840;8.276;2022-10-17T03:54:17;5.80;;;5.50;;
9948;SDS011;5013;51.840;8.276;2022-10-17T03:56:43;9.50;;;7.27;;
9948;SDS011;5013;51.840;8.276;2022-10-17T03:59:12;7.07;;;6.47;;
9948;SDS011;5013;51.840;8.276;2022-10-17T04:01:39;6.63;;;6.13;;
9948;SDS011;5013;51.840;8.276;2022-10-17T04:04:05;7.37;;;6.43;;
9948;SDS011;5013;51.840;8.276;2022-10-17T04:06:31;7.13;;;6.53;;
9948;SDS011;5013;51.840;8.276;2022-10-17T04:08:57;8.77;;;6.30;;
9948;SDS011;5013;51.840;8.276;2022-10-17T04:11:23;7.07;;;6.27;;
9948;SDS011;5013;51.840;8.276;2022-10-17T04:13:53;6.80;;;6.20;;
9948;SDS011;5013;51.840;8.276;2022-10-17T04:16:20;7.03;;;6.50;;
9948;SDS011;5013;51.840;8.276;2022-10-17T04:18:46;7.13;;;6.63;;
9948;SDS011;5013;51.840;8.276;2022-10-17T04:21:15;9.13;;;7.07;;
9948;SDS011;5013;51.840;8.276;2022-10-17T04:23:42;12.27;;;7.83;;
9948;SDS011;5013;51.840;8.276;2022-10-17T04:26:08;7.37;;;6.77;;
9948;SDS011;5013;51.840;8.276;2022-10-17T04:28:34;6.70;;;6.20;;
9948;SDS011;5013;51.840;8.276;2022-10-17T04:31:04;6.43;;;6.03;;
9948;SDS011;5013;51.840;8.276;2022-10-17T04:33:35;6.77;;;6.27;;
9948;SDS011;5013;51.840;8.276;2022-10-17T04:36:04;6.47;;;6.07;;
9948;SDS011;5013;51.840;8.276;2022-10-17T04:38:32;6.83;;;6.30;;
9948;SDS011;5013;51.840;8.276;2022-10-17T04:40:58;6.10;;;5.70;;
9948;SDS011;5013;51.840;8.276;2022-10-17T04:43:27;6.10;;;5.70;;
9948;SDS011;5013;51.840;8.276;2022-10-17T04:45:55;8.10;;;6.37;;
9948;SDS011;5013;51.840;8.276;2022-10-17T04:48:22;8.00;;;6.90;;
9948;SDS011;5013;51.840;8.276;2022-10-17T04:50:54;7.13;;;5.87;;
9948;SDS011;5013;51.840;8.276;2022-10-17T04:53:21;6.73;;;6.27;;
9948;SDS011;5013;51.840;8.276;2022-10-17T04:55:47;6.13;;;5.73;;
9948;SDS011;5013;51.840;8.276;2022-10-17T04:58:13;5.87;;;5.43;;
9948;SDS011;5013;51.840;8.276;2022-10-17T05:00:39;5.57;;;5.13;;
9948;SDS011;5013;51.840;8.276;2022-10-17T05:03:04;5.67;;;5.17;;
9948;SDS011;5013;51.840;8.276;2022-10-17T05:05:30;5.23;;;4.93;;
9948;SDS011;5013;51.840;8.276;2022-10-17T05:07:55;5.80;;;5.40;;
9948;SDS011;5013;51.840;8.276;2022-10-17T05:10:21;5.17;;;4.87;;
9948;SDS011;5013;51.840;8.276;2022-10-17T05:12:47;5.17;;;4.87;;
9948;SDS011;5013;51.840;8.276;2022-10-17T05:15:13;8.53;;;5.33;;
9948;SDS011;5013;51.840;8.276;2022-10-17T05:17:39;5.50;;;5.00;;
9948;SDS011;5013;51.840;8.276;2022-10-17T05:20:05;5.30;;;4.80;;
9948;SDS011;5013;51.840;8.276;2022-10-17T05:22:31;5.27;;;4.97;;
9948;SDS011;5013;51.840;8.276;2022-10-17T05:24:57;6.20;;;5.60;;
9948;SDS011;5013;51.840;8.276;2022-10-17T05:27:22;6.87;;;5.70;;
9948;SDS011;5013;51.840;8.276;2022-10-17T05:29:48;6.57;;;5.93;;
9948;SDS011;5013;51.840;8.276;2022-10-17T05:32:14;9.50;;;6.07;;
9948;SDS011;5013;51.840;8.276;2022-10-17T05:34:40;7.13;;;5.93;;
9948;SDS011;5013;51.840;8.276;2022-10-17T05:37:05;5.80;;;5.40;;
9948;SDS011;5013;51.840;8.276;2022-10-17T05:39:31;5.93;;;5.43;;
9948;SDS011;5013;51.840;8.276;2022-10-17T05:41:57;6.83;;;5.47;;
9948;SDS011;5013;51.840;8.276;2022-10-17T05:44:22;5.73;;;5.33;;
9948;SDS011;5013;51.840;8.276;2022-10-17T05:46:48;5.80;;;5.37;;
9948;SDS011;5013;51.840;8.276;2022-10-17T05:49:14;5.03;;;4.80;;
9948;SDS011;5013;51.840;8.276;2022-10-17T05:51:40;6.50;;;6.07;;
9948;SDS011;5013;51.840;8.276;2022-10-17T05:54:06;7.20;;;6.23;;
9948;SDS011;5013;51.840;8.276;2022-10-17T05:56:32;5.97;;;5.47;;
9948;SDS011;5013;51.840;8.276;2022-10-17T05:58:58;6.07;;;5.57;;
9948;SDS011;5013;51.840;8.276;2022-10-17T06:01:24;6.03;;;5.63;;
9948;SDS011;5013;51.840;8.276;2022-10-17T06:03:50;6.23;;;5.60;;
9948;SDS011;5013;51.840;8.276;2022-10-17T06:06:15;5.90;;;5.50;;
9948;SDS011;5013;51.840;8.276;2022-10-17T06:08:42;6.40;;;6.00;;
9948;SDS011;5013;51.840;8.276;2022-10-17T06:11:08;7.53;;;7.00;;
9948;SDS011;5013;51.840;8.276;2022-10-17T06:13:35;9.43;;;7.53;;
9948;SDS011;5013;51.840;8.276;2022-10-17T06:16:01;7.30;;;6.70;;
9948;SDS011;5013;51.840;8.276;2022-10-17T06:18:27;8.23;;;6.80;;
9948;SDS011;5013;51.840;8.276;2022-10-17T06:20:53;9.90;;;6.83;;
9948;SDS011;5013;51.840;8.276;2022-10-17T06:23:18;9.47;;;6.83;;
9948;SDS011;5013;51.840;8.276;2022-10-17T06:25:44;7.07;;;6.47;;
9948;SDS011;5013;51.840;8.276;2022-10-17T06:28:10;10.10;;;6.13;;
9948;SDS011;5013;51.840;8.276;2022-10-17T06:30:37;6.93;;;6.20;;
9948;SDS011;5013;51.840;8.276;2022-10-17T06:33:04;7.33;;;6.67;;
9948;SDS011;5013;51.840;8.276;2022-10-17T06:35:30;7.00;;;6.40;;
9948;SDS011;5013;51.840;8.276;2022-10-17T06:37:55;6.77;;;6.17;;
9948;SDS011;5013;51.840;8.276;2022-10-17T06:40:21;7.17;;;6.50;;
9948;SDS011;5013;51.840;8.276;2022-10-17T06:42:47;8.27;;;7.43;;
9948;SDS011;5013;51.840;8.276;2022-10-17T06:45:13;7.57;;;6.07;;
9948;SDS011;5013;51.840;8.276;2022-10-17T06:51:02;6.77;;;6.13;;
9948;SDS011;5013;51.840;8.276;2022-10-17T06:53:30;8.13;;;6.27;;
9948;SDS011;5013;51.840;8.276;2022-10-17T06:55:57;9.63;;;6.33;;
9948;SDS011;5013;51.840;8.276;2022-10-17T06:58:27;7.40;;;5.57;;
9948;SDS011;5013;51.840;8.276;2022-10-17T07:01:02;7.93;;;5.90;;
9948;SDS011;5013;51.840;8.276;2022-10-17T07:03:30;7.33;;;6.10;;
9948;SDS011;5013;51.840;8.276;2022-10-17T07:05:56;7.37;;;5.77;;
9948;SDS011;5013;51.840;8.276;2022-10-17T07:08:23;9.17;;;6.70;;
9948;SDS011;5013;51.840;8.276;2022-10-17T07:10:49;10.43;;;7.10;;
9948;SDS011;5013;51.840;8.276;2022-10-17T07:13:15;12.20;;;6.90;;
9948;SDS011;5013;51.840;8.276;2022-10-17T07:15:44;6.37;;;5.93;;
9948;SDS011;5013;51.840;8.276;2022-10-17T07:18:10;9.03;;;6.23;;
9948;SDS011;5013;51.840;8.276;2022-10-17T07:20:35;6.87;;;5.97;;
9948;SDS011;5013;51.840;8.276;2022-10-17T07:23:01;7.67;;;5.80;;
9948;SDS011;5013;51.840;8.276;2022-10-17T07:25:27;9.30;;;5.80;;
9948;SDS011;5013;51.840;8.276;2022-10-17T07:27:53;9.37;;;5.70;;
9948;SDS011;5013;51.840;8.276;2022-10-17T07:30:19;6.40;;;5.90;;
9948;SDS011;5013;51.840;8.276;2022-10-17T07:32:45;6.83;;;6.17;;
9948;SDS011;5013;51.840;8.276;2022-10-17T07:35:11;5.93;;;5.50;;
9948;SDS011;5013;51.840;8.276;2022-10-17T07:37:37;6.57;;;6.13;;
9948;SDS011;5013;51.840;8.276;2022-10-17T07:40:04;8.63;;;6.60;;
9948;SDS011;5013;51.840;8.276;2022-10-17T07:42:32;6.73;;;6.20;;
9948;SDS011;5013;51.840;8.276;2022-10-17T07:45:00;8.00;;;7.20;;
9948;SDS011;5013;51.840;8.276;2022-10-17T07:47:25;11.67;;;7.87;;
9948;SDS011;5013;51.840;8.276;2022-10-17T07:49:51;11.70;;;7.57;;
9948;SDS011;5013;51.840;8.276;2022-10-17T07:52:16;10.67;;;7.97;;
9948;SDS011;5013;51.840;8.276;2022-10-17T07:58:04;8.13;;;7.33;;
9948;SDS011;5013;51.840;8.276;2022-10-17T08:00:29;11.73;;;7.90;;
9948;SDS011;5013;51.840;8.276;2022-10-17T08:02:55;11.03;;;8.80;;
9948;SDS011;5013;51.840;8.276;2022-10-17T08:05:21;7.90;;;7.30;;
9948;SDS011;5013;51.840;8.276;2022-10-17T08:07:46;8.90;;;7.37;;
9948;SDS011;5013;51.840;8.276;2022-10-17T08:10:12;11.67;;;7.60;;
9948;SDS011;5013;51.840;8.276;2022-10-17T08:12:39;10.13;;;6.90;;
9948;SDS011;5013;51.840;8.276;2022-10-17T08:15:05;6.67;;;6.07;;
9948;SDS011;5013;51.840;8.276;2022-10-17T08:17:33;10.20;;;7.07;;
9948;SDS011;5013;51.840;8.276;2022-10-17T08:19:59;8.00;;;7.20;;
9948;SDS011;5013;51.840;8.276;2022-10-17T08:22:25;17.07;;;8.57;;
9948;SDS011;5013;51.840;8.276;2022-10-17T08:24:51;8.67;;;7.87;;
9948;SDS011;5013;51.840;8.276;2022-10-17T08:27:17;11.17;;;8.10;;
9948;SDS011;5013;51.840;8.276;2022-10-17T08:29:48;10.53;;;7.77;;
9948;SDS011;5013;51.840;8.276;2022-10-17T08:32:17;10.63;;;7.83;;
9948;SDS011;5013;51.840;8.276;2022-10-17T08:34:46;9.17;;;7.23;;
9948;SDS011;5013;51.840;8.276;2022-10-17T08:37:12;8.57;;;6.87;;
9948;SDS011;5013;51.840;8.276;2022-10-17T08:39:39;9.87;;;7.53;;
9948;SDS011;5013;51.840;8.276;2022-10-17T08:42:24;9.93;;;8.07;;
9948;SDS011;5013;51.840;8.276;2022-10-17T08:47:23;9.70;;;7.83;;
9948;SDS011;5013;51.840;8.276;2022-10-17T08:49:53;14.07;;;7.77;;
9948;SDS011;5013;51.840;8.276;2022-10-17T08:54:54;11.37;;;7.80;;
9948;SDS011;5013;51.840;8.276;2022-10-17T08:57:20;12.20;;;7.43;;
9948;SDS011;5013;51.840;8.276;2022-10-17T08:59:48;12.63;;;7.90;;
9948;SDS011;5013;51.840;8.276;2022-10-17T09:10:30;8.27;;;6.87;;
9948;SDS011;5013;51.840;8.276;2022-10-17T09:13:22;9.80;;;6.53;;
9948;SDS011;5013;51.840;8.276;2022-10-17T09:16:33;8.17;;;6.00;;
9948;SDS011;5013;51.840;8.276;2022-10-17T09:19:21;6.73;;;5.63;;
9948;SDS011;5013;51.840;8.276;2022-10-17T09:24:25;8.77;;;5.90;;
9948;SDS011;5013;51.840;8.276;2022-10-17T09:27:41;7.97;;;5.40;;
9948;SDS011;5013;51.840;8.276;2022-10-17T09:32:57;6.07;;;4.53;;
9948;SDS011;5013;51.840;8.276;2022-10-17T09:35:22;7.13;;;4.30;;
9948;SDS011;5013;51.840;8.276;2022-10-17T09:41:16;6.20;;;3.90;;
9948;SDS011;5013;51.840;8.276;2022-10-17T09:49:51;3.30;;;3.00;;
9948;SDS011;5013;51.840;8.276;2022-10-17T09:55:43;3.70;;;3.40;;
9948;SDS011;5013;51.840;8.276;2022-10-17T09:58:12;6.47;;;3.33;;
9948;SDS011;5013;51.840;8.276;2022-10-17T10:00:44;4.70;;;2.93;;
9948;SDS011;5013;51.840;8.276;2022-10-17T10:05:37;3.60;;;3.17;;
9948;SDS011;5013;51.840;8.276;2022-10-17T10:08:05;5.70;;;3.57;;
9948;SDS011;5013;51.840;8.276;2022-10-17T10:10:43;9.67;;;3.57;;
9948;SDS011;5013;51.840;8.276;2022-10-17T10:15:38;6.83;;;3.50;;
9948;SDS011;5013;51.840;8.276;2022-10-17T10:23:34;6.47;;;3.57;;
9948;SDS011;5013;51.840;8.276;2022-10-17T10:26:17;10.47;;;3.80;;
9948;SDS011;5013;51.840;8.276;2022-10-17T10:28:56;4.67;;;3.07;;
9948;SDS011;5013;51.840;8.276;2022-10-17T10:31:25;3.77;;;3.07;;
9948;SDS011;5013;51.840;8.276;2022-10-17T10:34:00;5.27;;;3.03;;
9948;SDS011;5013;51.840;8.276;2022-10-17T10:36:44;4.63;;;2.83;;
9948;SDS011;5013;51.840;8.276;2022-10-17T10:39:22;5.53;;;3.07;;
9948;SDS011;5013;51.840;8.276;2022-10-17T10:41:50;5.17;;;3.47;;
9948;SDS011;5013;51.840;8.276;2022-10-17T10:44:20;5.47;;;3.73;;
9948;SDS011;5013;51.840;8.276;2022-10-17T10:47:04;4.10;;;3.00;;
9948;SDS011;5013;51.840;8.276;2022-10-17T10:49:39;9.53;;;3.03;;
9948;SDS011;5013;51.840;8.276;2022-10-17T10:52:06;4.73;;;3.30;;
9948;SDS011;5013;51.840;8.276;2022-10-17T10:57:58;11.03;;;3.50;;
9948;SDS011;5013;51.840;8.276;2022-10-17T11:03:55;5.37;;;3.10;;
9948;SDS011;5013;51.840;8.276;2022-10-17T11:06:37;4.13;;;3.37;;
9948;SDS011;5013;51.840;8.276;2022-10-17T11:12:01;3.73;;;3.33;;
9948;SDS011;5013;51.840;8.276;2022-10-17T11:14:50;7.40;;;3.70;;
9948;SDS011;5013;51.840;8.276;2022-10-17T11:20:28;5.47;;;3.80;;
9948;SDS011;5013;51.840;8.276;2022-10-17T11:23:26;7.60;;;3.23;;
9948;SDS011;5013;51.840;8.276;2022-10-17T11:26:05;8.23;;;3.40;;
9948;SDS011;5013;51.840;8.276;2022-10-17T11:28:35;6.93;;;3.13;;
9948;SDS011;5013;51.840;8.276;2022-10-17T11:31:02;8.10;;;2.97;;
9948;SDS011;5013;51.840;8.276;2022-10-17T11:36:22;9.17;;;3.50;;
9948;SDS011;5013;51.840;8.276;2022-10-17T11:38:56;7.10;;;3.03;;
9948;SDS011;5013;51.840;8.276;2022-10-17T11:41:33;8.30;;;3.53;;
9948;SDS011;5013;51.840;8.276;2022-10-17T11:49:35;8.17;;;3.77;;
9948;SDS011;5013;51.840;8.276;2022-10-17T11:54:43;6.80;;;3.20;;
9948;SDS011;5013;51.840;8.276;2022-10-17T12:05:55;4.30;;;3.40;;
9948;SDS011;5013;51.840;8.276;2022-10-17T12:08:27;6.20;;;3.67;;
9948;SDS011;5013;51.840;8.276;2022-10-17T12:10:56;7.90;;;3.47;;
9948;SDS011;5013;51.840;8.276;2022-10-17T12:18:44;6.37;;;3.60;;
9948;SDS011;5013;51.840;8.276;2022-10-17T12:24:39;6.60;;;3.80;;
9948;SDS011;5013;51.840;8.276;2022-10-17T12:30:04;3.80;;;3.33;;
9948;SDS011;5013;51.840;8.276;2022-10-17T12:32:36;6.40;;;3.17;;
9948;SDS011;5013;51.840;8.276;2022-10-17T12:35:18;5.23;;;3.60;;
9948;SDS011;5013;51.840;8.276;2022-10-17T12:40:49;5.37;;;2.83;;
9948;SDS011;5013;51.840;8.276;2022-10-17T12:45:49;9.53;;;3.80;;
9948;SDS011;5013;51.840;8.276;2022-10-17T12:54:15;4.60;;;3.83;;
9948;SDS011;5013;51.840;8.276;2022-10-17T12:56:38;3.83;;;3.50;;
9948;SDS011;5013;51.840;8.276;2022-10-17T12:59:14;9.13;;;3.50;;
9948;SDS011;5013;51.840;8.276;2022-10-17T13:05:28;3.67;;;3.37;;
9948;SDS011;5013;51.840;8.276;2022-10-17T13:07:59;8.70;;;3.80;;
9948;SDS011;5013;51.840;8.276;2022-10-17T13:10:30;8.00;;;3.70;;
9948;SDS011;5013;51.840;8.276;2022-10-17T13:13:04;7.97;;;3.30;;
9948;SDS011;5013;51.840;8.276;2022-10-17T13:15:51;4.60;;;3.57;;
9948;SDS011;5013;51.840;8.276;2022-10-17T13:18:19;7.70;;;3.37;;
9948;SDS011;5013;51.840;8.276;2022-10-17T13:21:33;10.00;;;3.53;;
9948;SDS011;5013;51.840;8.276;2022-10-17T13:23:40;10.33;;;4.07;;
9948;SDS011;5013;51.840;8.276;2022-10-17T13:28:37;6.37;;;3.40;;
9948;SDS011;5013;51.840;8.276;2022-10-17T13:31:03;8.07;;;3.50;;
9948;SDS011;5013;51.840;8.276;2022-10-17T13:33:39;5.13;;;3.57;;
9948;SDS011;5013;51.840;8.276;2022-10-17T13:36:12;6.93;;;3.60;;
9948;SDS011;5013;51.840;8.276;2022-10-17T13:38:39;8.40;;;3.30;;
9948;SDS011;5013;51.840;8.276;2022-10-17T13:41:09;10.47;;;3.27;;
9948;SDS011;5013;51.840;8.276;2022-10-17T13:43:38;3.30;;;3.10;;
9948;SDS011;5013;51.840;8.276;2022-10-17T13:46:04;7.87;;;3.20;;
9948;SDS011;5013;51.840;8.276;2022-10-17T13:48:32;3.73;;;3.37;;
9948;SDS011;5013;51.840;8.276;2022-10-17T13:51:02;6.20;;;3.70;;
9948;SDS011;5013;51.840;8.276;2022-10-17T13:53:30;7.40;;;3.50;;
9948;SDS011;5013;51.840;8.276;2022-10-17T13:58:57;5.17;;;3.47;;
9948;SDS011;5013;51.840;8.276;2022-10-17T14:01:25;8.40;;;3.50;;
9948;SDS011;5013;51.840;8.276;2022-10-17T14:03:52;9.53;;;3.37;;
9948;SDS011;5013;51.840;8.276;2022-10-17T14:06:28;7.80;;;3.40;;
9948;SDS011;5013;51.840;8.276;2022-10-17T14:11:39;3.20;;;2.90;;
9948;SDS011;5013;51.840;8.276;2022-10-17T14:14:19;4.03;;;3.57;;
9948;SDS011;5013;51.840;8.276;2022-10-17T14:16:48;3.43;;;3.03;;
9948;SDS011;5013;51.840;8.276;2022-10-17T14:19:34;8.37;;;3.97;;
9948;SDS011;5013;51.840;8.276;2022-10-17T14:22:14;6.43;;;3.70;;
9948;SDS011;5013;51.840;8.276;2022-10-17T14:24:46;13.90;;;4.10;;
9948;SDS011;5013;51.840;8.276;2022-10-17T14:27:29;3.93;;;3.60;;
9948;SDS011;5013;51.840;8.276;2022-10-17T14:30:51;5.90;;;3.93;;
9948;SDS011;5013;51.840;8.276;2022-10-17T14:32:49;6.90;;;3.60;;
9948;SDS011;5013;51.840;8.276;2022-10-17T14:35:16;8.50;;;3.40;;
9948;SDS011;5013;51.840;8.276;2022-10-17T14:37:42;3.40;;;3.10;;
9948;SDS011;5013;51.840;8.276;2022-10-17T14:40:14;7.20;;;3.40;;
9948;SDS011;5013;51.840;8.276;2022-10-17T14:42:44;10.73;;;3.70;;
9948;SDS011;5013;51.840;8.276;2022-10-17T14:45:13;4.90;;;3.00;;
9948;SDS011;5013;51.840;8.276;2022-10-17T14:47:43;6.70;;;3.20;;
9948;SDS011;5013;51.840;8.276;2022-10-17T14:52:39;4.60;;;3.60;;
9948;SDS011;5013;51.840;8.276;2022-10-17T14:55:19;9.23;;;3.73;;
9948;SDS011;5013;51.840;8.276;2022-10-17T15:01:12;8.67;;;3.73;;
9948;SDS011;5013;51.840;8.276;2022-10-17T15:03:38;8.23;;;3.93;;
9948;SDS011;5013;51.840;8.276;2022-10-17T15:06:17;8.37;;;3.83;;
9948;SDS011;5013;51.840;8.276;2022-10-17T15:08:53;15.20;;;4.43;;
9948;SDS011;5013;51.840;8.276;2022-10-17T15:11:19;4.87;;;3.43;;
9948;SDS011;5013;51.840;8.276;2022-10-17T15:13:45;6.77;;;3.40;;
9948;SDS011;5013;51.840;8.276;2022-10-17T15:16:23;8.17;;;4.07;;
9948;SDS011;5013;51.840;8.276;2022-10-17T15:18:50;11.70;;;3.77;;
9948;SDS011;5013;51.840;8.276;2022-10-17T15:21:18;9.13;;;3.77;;
9948;SDS011;5013;51.840;8.276;2022-10-17T15:23:45;8.90;;;3.30;;
9948;SDS011;5013;51.840;8.276;2022-10-17T15:26:18;7.63;;;3.77;;
9948;SDS011;5013;51.840;8.276;2022-10-17T15:28:49;5.47;;;2.90;;
9948;SDS011;5013;51.840;8.276;2022-10-17T15:31:16;10.80;;;3.97;;
9948;SDS011;5013;51.840;8.276;2022-10-17T15:33:43;6.90;;;3.50;;
9948;SDS011;5013;51.840;8.276;2022-10-17T15:36:17;7.57;;;3.33;;
9948;SDS011;5013;51.840;8.276;2022-10-17T15:38:50;6.37;;;2.87;;
9948;SDS011;5013;51.840;8.276;2022-10-17T15:41:18;8.33;;;3.67;;
9948;SDS011;5013;51.840;8.276;2022-10-17T15:43:44;12.47;;;3.67;;
9948;SDS011;5013;51.840;8.276;2022-10-17T15:46:12;11.60;;;3.53;;
9948;SDS011;5013;51.840;8.276;2022-10-17T15:48:41;6.33;;;3.57;;
9948;SDS011;5013;51.840;8.276;2022-10-17T15:51:07;10.80;;;3.73;;
9948;SDS011;5013;51.840;8.276;2022-10-17T15:53:33;5.67;;;3.63;;
9948;SDS011;5013;51.840;8.276;2022-10-17T15:55:59;7.93;;;3.67;;
9948;SDS011;5013;51.840;8.276;2022-10-17T15:58:27;8.33;;;3.60;;
9948;SDS011;5013;51.840;8.276;2022-10-17T16:01:04;8.00;;;3.97;;
9948;SDS011;5013;51.840;8.276;2022-10-17T16:03:30;7.57;;;3.47;;
9948;SDS011;5013;51.840;8.276;2022-10-17T16:05:57;7.30;;;3.77;;
9948;SDS011;5013;51.840;8.276;2022-10-17T16:08:22;9.13;;;3.53;;
9948;SDS011;5013;51.840;8.276;2022-10-17T16:10:49;6.50;;;3.40;;
9948;SDS011;5013;51.840;8.276;2022-10-17T16:13:19;7.57;;;4.07;;
9948;SDS011;5013;51.840;8.276;2022-10-17T16:15:46;15.07;;;4.47;;
9948;SDS011;5013;51.840;8.276;2022-10-17T16:18:12;8.07;;;3.63;;
9948;SDS011;5013;51.840;8.276;2022-10-17T16:20:38;6.40;;;3.77;;
9948;SDS011;5013;51.840;8.276;2022-10-17T16:23:04;7.93;;;3.77;;
9948;SDS011;5013;51.840;8.276;2022-10-17T16:25:32;7.53;;;4.33;;
9948;SDS011;5013;51.840;8.276;2022-10-17T16:27:58;4.87;;;3.93;;
9948;SDS011;5013;51.840;8.276;2022-10-17T16:33:46;8.10;;;4.73;;
9948;SDS011;5013;51.840;8.276;2022-10-17T16:36:16;11.90;;;4.10;;
9948;SDS011;5013;51.840;8.276;2022-10-17T16:38:42;13.17;;;5.30;;
9948;SDS011;5013;51.840;8.276;2022-10-17T16:41:27;10.17;;;5.23;;
9948;SDS011;5013;51.840;8.276;2022-10-17T16:43:56;4.77;;;4.30;;
9948;SDS011;5013;51.840;8.276;2022-10-17T16:46:23;7.37;;;4.87;;
9948;SDS011;5013;51.840;8.276;2022-10-17T16:48:50;9.77;;;4.93;;
9948;SDS011;5013;51.840;8.276;2022-10-17T16:51:17;8.47;;;5.43;;
9948;SDS011;5013;51.840;8.276;2022-10-17T16:53:44;12.93;;;5.87;;
9948;SDS011;5013;51.840;8.276;2022-10-17T16:56:12;9.43;;;5.30;;
9948;SDS011;5013;51.840;8.276;2022-10-17T17:02:01;13.83;;;6.00;;
9948;SDS011;5013;51.840;8.276;2022-10-17T17:04:27;10.37;;;5.93;;
9948;SDS011;5013;51.840;8.276;2022-10-17T17:06:53;11.47;;;6.37;;
9948;SDS011;5013;51.840;8.276;2022-10-17T17:09:18;10.90;;;7.27;;
9948;SDS011;5013;51.840;8.276;2022-10-17T17:11:44;10.37;;;7.97;;
9948;SDS011;5013;51.840;8.276;2022-10-17T17:14:10;13.17;;;8.07;;
9948;SDS011;5013;51.840;8.276;2022-10-17T17:19:58;13.73;;;6.87;;
9948;SDS011;5013;51.840;8.276;2022-10-17T17:22:23;14.00;;;7.40;;
9948;SDS011;5013;51.840;8.276;2022-10-17T17:24:49;13.57;;;7.10;;
9948;SDS011;5013;51.840;8.276;2022-10-17T17:27:14;15.40;;;7.97;;
9948;SDS011;5013;51.840;8.276;2022-10-17T17:29:40;14.00;;;9.93;;
9948;SDS011;5013;51.840;8.276;2022-10-17T17:32:05;15.37;;;9.63;;
9948;SDS011;5013;51.840;8.276;2022-10-17T17:34:34;14.83;;;9.47;;
9948;SDS011;5013;51.840;8.276;2022-10-17T17:37:00;38.60;;;23.50;;
9948;SDS011;5013;51.840;8.276;2022-10-17T17:39:26;27.93;;;19.87;;
9948;SDS011;5013;51.840;8.276;2022-10-17T17:41:51;18.10;;;10.97;;
9948;SDS011;5013;51.840;8.276;2022-10-17T17:44:17;19.10;;;9.90;;
9948;SDS011;5013;51.840;8.276;2022-10-17T17:46:43;13.40;;;7.90;;
9948;SDS011;5013;51.840;8.276;2022-10-17T17:49:09;13.50;;;8.27;;
9948;SDS011;5013;51.840;8.276;2022-10-17T17:51:35;17.50;;;8.70;;
9948;SDS011;5013;51.840;8.276;2022-10-17T17:54:02;18.50;;;10.63;;
9948;SDS011;5013;51.840;8.276;2022-10-17T17:56:28;21.37;;;11.83;;
9948;SDS011;5013;51.840;8.276;2022-10-17T17:59:03;26.90;;;12.40;;
9948;SDS011;5013;51.840;8.276;2022-10-17T18:01:30;13.43;;;9.83;;
9948;SDS011;5013;51.840;8.276;2022-10-17T18:04:00;20.40;;;10.70;;
9948;SDS011;5013;51.840;8.276;2022-10-17T18:06:26;14.03;;;9.60;;
9948;SDS011;5013;51.840;8.276;2022-10-17T18:08:53;14.37;;;8.80;;
9948;SDS011;5013;51.840;8.276;2022-10-17T18:11:22;15.67;;;9.43;;